Stow, ME

1:56 PM EST on December 05, 2016 (GMT -0500)
| | Change Station

Elev -9999 ft 0.00 °N, 0.00 °E | Updated

Light Snow
Light Snow Mist
°F
Feels Like °F
N
Wind Variable Wind from North
Gusts mph

Today
High -- | Low -- °F
--% Chance of Precip.
Yesterday
High -- | Low -- °F
Precip. -- in
Pressure 29.93 in
Visibility 0.8 miles
Clouds
Dew Point Not available.
Humidity Not available.
Rainfall --
Snow Depth Not available.
7:04 AM 4:05 PM
Waxing Crescent, 34% visible
SPECI KIZG 051814Z AUTO 00000KT 3/4SM -SN BR VV013 M03/M05 A2993 RMK AO2 P0000 T10331050
Pressure 29.93 in
Visibility 0.8 miles
Clouds
Dew Point Not available.
Humidity Not available.
Rainfall --
Snow Depth Not available.
7:04 AM 4:05 PM
Waxing Crescent, 34% visible
SPECI KIZG 051814Z AUTO 00000KT 3/4SM -SN BR VV013 M03/M05 A2993 RMK AO2 P0000 T10331050

10-Day Weather Forecast

Almanac

Astronomy

Dec. 05, 2016 Rise Set
Actual Time
Civil Twilight
Nautical Twilight
Astronomical Twilight
Moon
Length of Visible Light
Length of Day
Tomorrow will be .
, % of the Moon is Illuminated

Today's Extremes

State Highs State Lows

Community

WunderPhotos

Upload Photos

1,955,851 photos uploaded!

WunderBlog® & News

Nearby

Air Quality

  Air Quality AQ Index Pollutant
Not available.

Snow Depth

Station Depth Elevation

Earthquake Activity

City Distance Mag. Time & Date
Minimum magnitude displayed is 2.5.

Coastal Water Temperatures

Place Temperature

Stations

Nearby Weather Stations

Station Location Temp. Windchill Dew Point Humidity Wind Precip. Elev Updated Type
                   

Watches & Warnings

There are currently no watches in effect.